EVA121 RCTP-RPLL
Flight info
| Callsign | EVA121 |
|---|---|
| Flight time | 1h 12m |
| Altitude | 36000 |
| Route | TINHO1A/05R TINHO B591 GID Q11 POTIB M646 LAO/N0458F370 B462 CAB CAB7R |
| Aircraft | A321/M-SDE3FGHIRWY/LB1 |
Departure
| Time | 2026-05-04 12:08 |
|---|---|
| Airport | Taiwan Taoyuan International Airport (RCTP) |
Arrival
| Time | 2026-05-04 13:21 |
|---|---|
| Airport | Ninoy Aquino International Airport (RPLL) |
| Time | Latitude | Longitude | Altitude | Speed | Heading |
|---|---|---|---|---|---|
| 2026-05-04 11:42 | 25.07512 | 121.23319 | 101 ft | 0 kts | 319° |
| 2026-05-04 11:43 | 25.07511 | 121.23319 | 101 ft | 0 kts | 319° |
| 2026-05-04 11:55 | 25.07511 | 121.23320 | 101 ft | 0 kts | 319° |
| 2026-05-04 11:58 | 25.07500 | 121.23330 | 111 ft | 4 kts | 319° |
| 2026-05-04 11:58 | 25.07479 | 121.23350 | 101 ft | 4 kts | 319° |
| 2026-05-04 11:58 | 25.07459 | 121.23369 | 98 ft | 4 kts | 319° |
| 2026-05-04 11:58 | 25.07440 | 121.23388 | 100 ft | 4 kts | 301° |
| 2026-05-04 11:59 | 25.07433 | 121.23413 | 101 ft | 4 kts | 252° |
| 2026-05-04 11:59 | 25.07444 | 121.23435 | 101 ft | 1 kts | 229° |
| 2026-05-04 11:59 | 25.07445 | 121.23436 | 101 ft | 2 kts | 229° |
| 2026-05-04 12:02 | 25.07439 | 121.23428 | 101 ft | 5 kts | 229° |
| 2026-05-04 12:03 | 25.07273 | 121.23214 | 101 ft | 3 kts | 230° |
| 2026-05-04 12:03 | 25.07258 | 121.23197 | 101 ft | 3 kts | 214° |
| 2026-05-04 12:03 | 25.07236 | 121.23187 | 101 ft | 3 kts | 196° |
| 2026-05-04 12:03 | 25.07216 | 121.23187 | 101 ft | 3 kts | 169° |
| 2026-05-04 12:04 | 25.07179 | 121.23205 | 101 ft | 10 kts | 154° |
| 2026-05-04 12:04 | 25.07095 | 121.23276 | 100 ft | 17 kts | 162° |
| 2026-05-04 12:04 | 25.06996 | 121.23193 | 100 ft | 20 kts | 230° |
| 2026-05-04 12:04 | 25.06888 | 121.23053 | 100 ft | 28 kts | 229° |
| 2026-05-04 12:05 | 25.06768 | 121.22896 | 102 ft | 18 kts | 230° |
| 2026-05-04 12:05 | 25.06686 | 121.22799 | 100 ft | 17 kts | 227° |
| 2026-05-04 12:05 | 25.06612 | 121.22705 | 101 ft | 16 kts | 230° |
| 2026-05-04 12:05 | 25.06545 | 121.22619 | 99 ft | 15 kts | 228° |
| 2026-05-04 12:06 | 25.06476 | 121.22532 | 100 ft | 15 kts | 230° |
| 2026-05-04 12:06 | 25.06405 | 121.22440 | 99 ft | 18 kts | 229° |
| 2026-05-04 12:06 | 25.06317 | 121.22327 | 100 ft | 21 kts | 229° |
| 2026-05-04 12:06 | 25.06225 | 121.22249 | 100 ft | 12 kts | 187° |
| 2026-05-04 12:07 | 25.06179 | 121.22275 | 99 ft | 12 kts | 140° |
| 2026-05-04 12:07 | 25.06110 | 121.22373 | 98 ft | 12 kts | 91° |
| 2026-05-04 12:07 | 25.06139 | 121.22426 | 96 ft | 6 kts | 49° |
| 2026-05-04 12:07 | 25.06141 | 121.22428 | 96 ft | 0 kts | 49° |
| 2026-05-04 12:08 | 25.06197 | 121.22500 | 95 ft | 45 kts | 49° |
| 2026-05-04 12:08 | 25.06612 | 121.23028 | 93 ft | 133 kts | 48° |
| 2026-05-04 12:08 | 25.07364 | 121.23956 | 414 ft | 172 kts | 53° |
| 2026-05-04 12:08 | 25.08156 | 121.24932 | 1623 ft | 167 kts | 53° |
| 2026-05-04 12:09 | 25.08925 | 121.25900 | 2568 ft | 173 kts | 54° |
| 2026-05-04 12:09 | 25.09724 | 121.26944 | 3008 ft | 183 kts | 56° |
| 2026-05-04 12:09 | 25.10565 | 121.28082 | 3167 ft | 205 kts | 56° |
| 2026-05-04 12:09 | 25.11527 | 121.29379 | 3402 ft | 231 kts | 53° |
| 2026-05-04 12:10 | 25.12640 | 121.30741 | 3998 ft | 245 kts | 51° |
| 2026-05-04 12:10 | 25.13843 | 121.32134 | 4694 ft | 256 kts | 50° |
| 2026-05-04 12:10 | 25.15112 | 121.33580 | 5329 ft | 269 kts | 48° |
| 2026-05-04 12:10 | 25.16450 | 121.35098 | 5928 ft | 283 kts | 47° |
| 2026-05-04 12:11 | 25.17855 | 121.36695 | 6521 ft | 296 kts | 45° |
| 2026-05-04 12:11 | 25.19299 | 121.38341 | 7241 ft | 301 kts | 44° |
| 2026-05-04 12:11 | 25.20750 | 121.40037 | 7976 ft | 307 kts | 47° |
| 2026-05-04 12:11 | 25.21913 | 121.42026 | 8679 ft | 314 kts | 70° |
| 2026-05-04 12:12 | 25.22269 | 121.44398 | 9372 ft | 316 kts | 96° |
| 2026-05-04 12:12 | 25.21729 | 121.46730 | 10057 ft | 314 kts | 122° |
| 2026-05-04 12:12 | 25.20468 | 121.48751 | 10336 ft | 329 kts | 136° |
| 2026-05-04 12:12 | 25.18851 | 121.50644 | 10517 ft | 350 kts | 139° |
| 2026-05-04 12:13 | 25.17091 | 121.52593 | 10888 ft | 364 kts | 140° |
| 2026-05-04 12:14 | 25.03460 | 121.66308 | 15178 ft | 391 kts | 144° |
| 2026-05-04 12:15 | 25.01390 | 121.68277 | 15746 ft | 395 kts | 144° |
| 2026-05-04 12:15 | 24.99300 | 121.70271 | 16297 ft | 399 kts | 144° |
| 2026-05-04 12:15 | 24.97191 | 121.72287 | 16860 ft | 402 kts | 144° |
| 2026-05-04 12:15 | 24.95097 | 121.74290 | 17388 ft | 406 kts | 144° |
| 2026-05-04 12:16 | 24.92954 | 121.76338 | 17930 ft | 409 kts | 144° |
| 2026-05-04 12:16 | 24.90792 | 121.78403 | 18458 ft | 413 kts | 144° |
| 2026-05-04 12:16 | 24.88617 | 121.80491 | 18875 ft | 417 kts | 144° |
| 2026-05-04 12:16 | 24.86419 | 121.82606 | 19301 ft | 420 kts | 144° |
| 2026-05-04 12:17 | 24.84208 | 121.84733 | 19748 ft | 423 kts | 144° |
| 2026-05-04 12:17 | 24.81945 | 121.86798 | 20172 ft | 421 kts | 150° |
| 2026-05-04 12:17 | 24.79427 | 121.88386 | 20583 ft | 416 kts | 160° |
| 2026-05-04 12:17 | 24.76823 | 121.89790 | 21012 ft | 418 kts | 161° |
| 2026-05-04 12:18 | 24.74202 | 121.91194 | 21429 ft | 421 kts | 161° |
| 2026-05-04 12:18 | 24.71546 | 121.92561 | 21843 ft | 420 kts | 165° |
| 2026-05-04 12:18 | 24.68804 | 121.93658 | 22249 ft | 420 kts | 167° |
| 2026-05-04 12:18 | 24.66038 | 121.94716 | 22648 ft | 422 kts | 168° |
| 2026-05-04 12:19 | 24.63253 | 121.95779 | 23069 ft | 425 kts | 168° |
| 2026-05-04 12:19 | 24.60455 | 121.96848 | 23463 ft | 427 kts | 168° |
| 2026-05-04 12:19 | 24.57632 | 121.97924 | 23826 ft | 430 kts | 168° |
| 2026-05-04 12:19 | 24.54798 | 121.99005 | 24158 ft | 432 kts | 168° |
| 2026-05-04 12:20 | 24.51949 | 122.00096 | 24490 ft | 434 kts | 168° |
| 2026-05-04 12:20 | 24.49094 | 122.01193 | 24833 ft | 436 kts | 168° |
| 2026-05-04 12:20 | 24.46222 | 122.02284 | 25161 ft | 436 kts | 170° |
| 2026-05-04 12:20 | 24.43300 | 122.03129 | 25487 ft | 432 kts | 176° |
| 2026-05-04 12:21 | 24.40381 | 122.03495 | 25810 ft | 425 kts | 186° |
| 2026-05-04 12:21 | 24.37455 | 122.03328 | 26137 ft | 418 kts | 195° |
| 2026-05-04 12:21 | 24.34628 | 122.02654 | 26470 ft | 413 kts | 202° |
| 2026-05-04 12:21 | 24.31878 | 122.01749 | 26804 ft | 414 kts | 203° |
| 2026-05-04 12:22 | 24.29108 | 122.00841 | 27136 ft | 416 kts | 202° |
| 2026-05-04 12:22 | 24.26322 | 121.99934 | 27465 ft | 418 kts | 202° |
| 2026-05-04 12:22 | 24.23528 | 121.99024 | 27792 ft | 420 kts | 202° |
| 2026-05-04 12:22 | 24.20718 | 121.98106 | 28110 ft | 422 kts | 202° |
| 2026-05-04 12:23 | 24.17901 | 121.97184 | 28429 ft | 424 kts | 202° |
| 2026-05-04 12:23 | 24.15070 | 121.96262 | 28723 ft | 425 kts | 202° |
| 2026-05-04 12:23 | 24.12229 | 121.95339 | 29015 ft | 427 kts | 202° |
| 2026-05-04 12:23 | 24.09369 | 121.94410 | 29305 ft | 429 kts | 202° |
| 2026-05-04 12:24 | 24.06503 | 121.93475 | 29593 ft | 431 kts | 203° |
| 2026-05-04 12:24 | 24.03619 | 121.92533 | 29885 ft | 433 kts | 203° |
| 2026-05-04 12:24 | 24.00728 | 121.91587 | 30170 ft | 435 kts | 203° |
| 2026-05-04 12:24 | 23.97821 | 121.90640 | 30412 ft | 436 kts | 203° |
| 2026-05-04 12:25 | 23.94915 | 121.89698 | 30736 ft | 436 kts | 202° |
| 2026-05-04 12:25 | 23.92044 | 121.88772 | 31071 ft | 435 kts | 203° |
| 2026-05-04 12:25 | 23.89144 | 121.87836 | 31383 ft | 434 kts | 203° |
| 2026-05-04 12:25 | 23.86248 | 121.86900 | 31717 ft | 434 kts | 203° |
| 2026-05-04 12:26 | 23.83359 | 121.85966 | 32058 ft | 433 kts | 203° |
| 2026-05-04 12:26 | 23.80469 | 121.85027 | 32392 ft | 433 kts | 203° |
| 2026-05-04 12:26 | 23.77587 | 121.84088 | 32733 ft | 432 kts | 203° |
| 2026-05-04 12:26 | 23.74707 | 121.83152 | 33089 ft | 431 kts | 203° |
| 2026-05-04 12:27 | 23.71836 | 121.82219 | 33435 ft | 431 kts | 203° |
| 2026-05-04 12:27 | 23.68966 | 121.81291 | 33773 ft | 430 kts | 203° |
| 2026-05-04 12:27 | 23.66098 | 121.80366 | 34063 ft | 430 kts | 203° |
| 2026-05-04 12:27 | 23.63224 | 121.79442 | 34132 ft | 429 kts | 203° |
| 2026-05-04 12:28 | 23.57504 | 121.77597 | 34132 ft | 429 kts | 203° |
| 2026-05-04 12:28 | 23.51784 | 121.75747 | 34129 ft | 429 kts | 203° |
| 2026-05-04 12:29 | 23.46071 | 121.73888 | 34129 ft | 429 kts | 204° |
| 2026-05-04 12:29 | 23.40356 | 121.72032 | 34125 ft | 429 kts | 203° |
| 2026-05-04 12:30 | 23.34632 | 121.70187 | 34126 ft | 429 kts | 203° |
| 2026-05-04 12:30 | 23.28937 | 121.68353 | 34127 ft | 429 kts | 203° |
| 2026-05-04 12:31 | 23.23201 | 121.66509 | 34123 ft | 430 kts | 203° |
| 2026-05-04 12:31 | 23.17463 | 121.64662 | 34121 ft | 430 kts | 203° |
| 2026-05-04 12:32 | 23.08845 | 121.61896 | 34115 ft | 430 kts | 203° |
| 2026-05-04 12:33 | 23.03097 | 121.60051 | 34116 ft | 431 kts | 203° |
| 2026-05-04 12:33 | 22.97375 | 121.58219 | 34111 ft | 431 kts | 203° |
| 2026-05-04 12:34 | 22.91626 | 121.56385 | 34108 ft | 431 kts | 203° |
| 2026-05-04 12:34 | 22.83796 | 121.53886 | 34102 ft | 431 kts | 202° |
| 2026-05-04 12:35 | 22.61039 | 121.45795 | 34108 ft | 428 kts | 208° |
| 2026-05-04 12:35 | 22.38918 | 121.36161 | 34058 ft | 426 kts | 208° |
| 2026-05-04 12:36 | 22.16803 | 121.26473 | 34113 ft | 432 kts | 207° |
| 2026-05-04 12:36 | 22.05879 | 121.21698 | 34017 ft | 421 kts | 207° |
| 2026-05-04 12:36 | 21.95007 | 121.16952 | 34077 ft | 419 kts | 207° |
| 2026-05-04 12:37 | 21.73231 | 121.07481 | 34078 ft | 424 kts | 207° |
| 2026-05-04 12:37 | 21.51360 | 120.97987 | 34035 ft | 423 kts | 206° |
| 2026-05-04 12:38 | 21.29438 | 120.88522 | 34077 ft | 426 kts | 206° |
| 2026-05-04 12:38 | 21.07439 | 120.79029 | 34023 ft | 425 kts | 206° |
| 2026-05-04 12:38 | 20.96061 | 120.75496 | 34014 ft | 436 kts | 188° |
| 2026-05-04 12:39 | 20.83967 | 120.74533 | 34011 ft | 436 kts | 189° |
| 2026-05-04 12:39 | 20.59686 | 120.72505 | 34000 ft | 438 kts | 189° |
| 2026-05-04 12:40 | 20.35352 | 120.70509 | 33998 ft | 439 kts | 189° |
| 2026-05-04 12:40 | 20.10940 | 120.68507 | 33991 ft | 440 kts | 188° |
| 2026-05-04 12:41 | 19.86634 | 120.66536 | 33984 ft | 440 kts | 188° |
| 2026-05-04 12:41 | 19.62181 | 120.64539 | 33968 ft | 440 kts | 189° |
| 2026-05-04 12:42 | 19.37705 | 120.62540 | 33955 ft | 441 kts | 188° |
| 2026-05-04 12:42 | 19.13194 | 120.60560 | 33957 ft | 442 kts | 188° |
| 2026-05-04 12:43 | 18.88690 | 120.58598 | 33942 ft | 441 kts | 188° |
| 2026-05-04 12:43 | 18.64249 | 120.56623 | 33921 ft | 440 kts | 188° |
| 2026-05-04 12:44 | 18.39751 | 120.54654 | 33864 ft | 443 kts | 188° |
| 2026-05-04 12:44 | 18.14950 | 120.53417 | 33856 ft | 456 kts | 172° |
| 2026-05-04 12:45 | 17.89878 | 120.58103 | 33882 ft | 458 kts | 173° |
| 2026-05-04 12:45 | 17.64800 | 120.62747 | 33907 ft | 458 kts | 173° |
| 2026-05-04 12:46 | 17.39788 | 120.67358 | 33937 ft | 460 kts | 173° |
| 2026-05-04 12:46 | 17.14560 | 120.72004 | 33974 ft | 460 kts | 173° |
| 2026-05-04 12:47 | 16.95590 | 120.75499 | 33998 ft | 461 kts | 173° |
| 2026-05-04 12:47 | 16.89270 | 120.76656 | 34004 ft | 461 kts | 173° |
| 2026-05-04 12:48 | 16.82957 | 120.77815 | 34010 ft | 461 kts | 172° |
| 2026-05-04 12:48 | 16.77702 | 120.78784 | 34011 ft | 461 kts | 172° |
| 2026-05-04 12:49 | 16.71386 | 120.79951 | 34022 ft | 461 kts | 172° |
| 2026-05-04 12:49 | 16.65073 | 120.81110 | 34018 ft | 461 kts | 172° |
| 2026-05-04 12:50 | 16.58755 | 120.82267 | 34016 ft | 461 kts | 172° |
| 2026-05-04 12:50 | 16.52432 | 120.83419 | 34019 ft | 462 kts | 172° |
| 2026-05-04 12:51 | 16.46104 | 120.84586 | 34012 ft | 462 kts | 172° |
| 2026-05-04 12:51 | 16.39779 | 120.85753 | 34009 ft | 462 kts | 172° |
| 2026-05-04 12:52 | 16.33453 | 120.86912 | 34009 ft | 461 kts | 172° |
| 2026-05-04 12:52 | 16.27123 | 120.88059 | 34003 ft | 462 kts | 172° |
| 2026-05-04 12:53 | 16.20797 | 120.89211 | 33999 ft | 462 kts | 172° |
| 2026-05-04 12:53 | 16.14463 | 120.90375 | 33991 ft | 462 kts | 172° |
| 2026-05-04 12:54 | 16.08133 | 120.91532 | 33983 ft | 462 kts | 172° |
| 2026-05-04 12:54 | 16.01792 | 120.92684 | 33983 ft | 463 kts | 172° |
| 2026-05-04 12:55 | 15.95448 | 120.93837 | 33990 ft | 464 kts | 172° |
| 2026-05-04 12:55 | 15.89097 | 120.94995 | 33982 ft | 463 kts | 172° |
| 2026-05-04 12:56 | 15.82744 | 120.96152 | 33975 ft | 463 kts | 172° |
| 2026-05-04 12:56 | 15.76396 | 120.97308 | 33658 ft | 463 kts | 172° |
| 2026-05-04 12:56 | 15.73219 | 120.97886 | 33399 ft | 463 kts | 172° |
| 2026-05-04 12:57 | 15.70046 | 120.98464 | 33147 ft | 463 kts | 172° |
| 2026-05-04 12:57 | 15.66875 | 120.99044 | 32895 ft | 463 kts | 171° |
| 2026-05-04 12:57 | 15.63706 | 120.99623 | 32648 ft | 463 kts | 171° |
| 2026-05-04 12:57 | 15.60539 | 121.00198 | 32405 ft | 462 kts | 171° |
| 2026-05-04 12:58 | 15.57361 | 121.00775 | 32154 ft | 462 kts | 171° |
| 2026-05-04 12:58 | 15.54198 | 121.01348 | 31915 ft | 461 kts | 171° |
| 2026-05-04 12:58 | 15.51056 | 121.01761 | 31670 ft | 449 kts | 179° |
| 2026-05-04 12:58 | 15.47979 | 121.01668 | 31442 ft | 437 kts | 187° |
| 2026-05-04 12:59 | 15.44950 | 121.01522 | 31194 ft | 440 kts | 179° |
| 2026-05-04 12:59 | 15.41839 | 121.01627 | 30967 ft | 453 kts | 179° |
| 2026-05-04 12:59 | 15.38673 | 121.01741 | 30736 ft | 458 kts | 179° |
| 2026-05-04 12:59 | 15.35481 | 121.01854 | 30505 ft | 459 kts | 179° |
| 2026-05-04 13:00 | 15.32291 | 121.01966 | 30277 ft | 459 kts | 179° |
| 2026-05-04 13:00 | 15.29102 | 121.02074 | 29905 ft | 457 kts | 179° |
| 2026-05-04 13:00 | 15.25934 | 121.02179 | 29245 ft | 454 kts | 179° |
| 2026-05-04 13:00 | 15.22792 | 121.02252 | 28611 ft | 450 kts | 180° |
| 2026-05-04 13:02 | 15.05157 | 120.98198 | 25040 ft | 430 kts | 197° |
| 2026-05-04 13:02 | 15.02310 | 120.97284 | 24479 ft | 428 kts | 197° |
| 2026-05-04 13:02 | 14.99478 | 120.96370 | 23932 ft | 425 kts | 197° |
| 2026-05-04 13:03 | 14.96669 | 120.95459 | 23368 ft | 422 kts | 197° |
| 2026-05-04 13:03 | 14.93883 | 120.94551 | 22719 ft | 419 kts | 197° |
| 2026-05-04 13:03 | 14.91116 | 120.93647 | 22069 ft | 414 kts | 197° |
| 2026-05-04 13:03 | 14.88391 | 120.92754 | 21400 ft | 408 kts | 197° |
| 2026-05-04 13:04 | 14.85705 | 120.91871 | 20746 ft | 402 kts | 197° |
| 2026-05-04 13:04 | 14.83064 | 120.90999 | 20110 ft | 397 kts | 197° |
| 2026-05-04 13:04 | 14.80448 | 120.90132 | 19486 ft | 392 kts | 197° |
| 2026-05-04 13:04 | 14.77873 | 120.89274 | 18845 ft | 389 kts | 197° |
| 2026-05-04 13:05 | 14.75296 | 120.88412 | 18177 ft | 387 kts | 197° |
| 2026-05-04 13:05 | 14.72740 | 120.87551 | 17428 ft | 385 kts | 197° |
| 2026-05-04 13:05 | 14.70188 | 120.86686 | 16575 ft | 386 kts | 197° |
| 2026-05-04 13:05 | 14.67632 | 120.85814 | 15736 ft | 388 kts | 197° |
| 2026-05-04 13:06 | 14.65071 | 120.84934 | 14915 ft | 388 kts | 197° |
| 2026-05-04 13:06 | 14.62508 | 120.84045 | 14119 ft | 389 kts | 197° |
| 2026-05-04 13:06 | 14.59951 | 120.83151 | 13269 ft | 388 kts | 197° |
| 2026-05-04 13:06 | 14.57423 | 120.82161 | 12403 ft | 389 kts | 205° |
| 2026-05-04 13:07 | 14.55254 | 120.80495 | 11556 ft | 392 kts | 226° |
| 2026-05-04 13:07 | 14.53645 | 120.78233 | 10730 ft | 389 kts | 236° |
| 2026-05-04 13:07 | 14.52203 | 120.75900 | 9926 ft | 383 kts | 237° |
| 2026-05-04 13:07 | 14.50796 | 120.73615 | 9049 ft | 369 kts | 237° |
| 2026-05-04 13:08 | 14.49464 | 120.71454 | 8629 ft | 343 kts | 237° |
| 2026-05-04 13:08 | 14.48214 | 120.69426 | 8489 ft | 328 kts | 237° |
| 2026-05-04 13:08 | 14.47011 | 120.67474 | 8360 ft | 316 kts | 237° |
| 2026-05-04 13:08 | 14.45852 | 120.65590 | 8144 ft | 307 kts | 237° |
| 2026-05-04 13:09 | 14.44712 | 120.63740 | 7809 ft | 304 kts | 237° |
| 2026-05-04 13:09 | 14.43581 | 120.61907 | 7448 ft | 302 kts | 237° |
| 2026-05-04 13:09 | 14.42460 | 120.60086 | 7093 ft | 300 kts | 237° |
| 2026-05-04 13:09 | 14.41346 | 120.58278 | 6737 ft | 297 kts | 237° |
| 2026-05-04 13:10 | 14.40231 | 120.56491 | 6373 ft | 295 kts | 234° |
| 2026-05-04 13:10 | 14.38847 | 120.54953 | 6000 ft | 292 kts | 219° |
| 2026-05-04 13:10 | 14.37151 | 120.53858 | 5611 ft | 286 kts | 197° |
| 2026-05-04 13:10 | 14.35222 | 120.53611 | 5248 ft | 277 kts | 169° |
| 2026-05-04 13:11 | 14.33474 | 120.54298 | 5024 ft | 268 kts | 141° |
| 2026-05-04 13:11 | 14.32273 | 120.55739 | 5017 ft | 267 kts | 118° |
| 2026-05-04 13:11 | 14.31563 | 120.57497 | 5020 ft | 266 kts | 105° |
| 2026-05-04 13:11 | 14.31256 | 120.59366 | 5018 ft | 265 kts | 89° |
| 2026-05-04 13:12 | 14.31337 | 120.61291 | 5024 ft | 265 kts | 83° |
| 2026-05-04 13:12 | 14.31573 | 120.63180 | 5024 ft | 266 kts | 81° |
| 2026-05-04 13:12 | 14.31837 | 120.65070 | 5017 ft | 266 kts | 81° |
| 2026-05-04 13:12 | 14.32103 | 120.66957 | 5019 ft | 266 kts | 81° |
| 2026-05-04 13:13 | 14.32508 | 120.68812 | 4936 ft | 265 kts | 66° |
| 2026-05-04 13:13 | 14.33350 | 120.70497 | 4823 ft | 264 kts | 60° |
| 2026-05-04 13:13 | 14.34240 | 120.72106 | 4741 ft | 251 kts | 60° |
| 2026-05-04 13:13 | 14.35089 | 120.73617 | 4674 ft | 235 kts | 60° |
| 2026-05-04 13:14 | 14.35878 | 120.75029 | 4599 ft | 223 kts | 60° |
| 2026-05-04 13:14 | 14.36624 | 120.76368 | 4550 ft | 207 kts | 61° |
| 2026-05-04 13:14 | 14.37329 | 120.77632 | 4485 ft | 200 kts | 61° |
| 2026-05-04 13:14 | 14.37985 | 120.78808 | 4406 ft | 179 kts | 61° |
| 2026-05-04 13:15 | 14.38581 | 120.79878 | 4200 ft | 166 kts | 62° |
| 2026-05-04 13:15 | 14.39142 | 120.80885 | 4019 ft | 158 kts | 62° |
| 2026-05-04 13:15 | 14.39680 | 120.81851 | 3843 ft | 149 kts | 62° |
| 2026-05-04 13:15 | 14.40178 | 120.82744 | 3653 ft | 140 kts | 63° |
| 2026-05-04 13:16 | 14.40661 | 120.83612 | 3472 ft | 139 kts | 63° |
| 2026-05-04 13:16 | 14.41141 | 120.84474 | 3303 ft | 138 kts | 62° |
| 2026-05-04 13:16 | 14.41618 | 120.85332 | 3127 ft | 137 kts | 62° |
| 2026-05-04 13:16 | 14.42095 | 120.86189 | 2948 ft | 137 kts | 63° |
| 2026-05-04 13:17 | 14.42568 | 120.87038 | 2773 ft | 136 kts | 63° |
| 2026-05-04 13:17 | 14.43040 | 120.87886 | 2606 ft | 136 kts | 62° |
| 2026-05-04 13:17 | 14.43509 | 120.88728 | 2429 ft | 135 kts | 63° |
| 2026-05-04 13:17 | 14.43977 | 120.89570 | 2256 ft | 135 kts | 63° |
| 2026-05-04 13:18 | 14.44438 | 120.90397 | 2083 ft | 135 kts | 63° |
| 2026-05-04 13:18 | 14.44909 | 120.91243 | 1910 ft | 134 kts | 63° |
| 2026-05-04 13:18 | 14.45372 | 120.92076 | 1739 ft | 134 kts | 62° |
| 2026-05-04 13:18 | 14.45834 | 120.92906 | 1571 ft | 134 kts | 62° |
| 2026-05-04 13:19 | 14.46297 | 120.93739 | 1391 ft | 134 kts | 64° |
| 2026-05-04 13:19 | 14.46760 | 120.94572 | 1223 ft | 133 kts | 63° |
| 2026-05-04 13:19 | 14.47223 | 120.95403 | 1067 ft | 133 kts | 64° |
| 2026-05-04 13:19 | 14.47690 | 120.96243 | 894 ft | 136 kts | 63° |
| 2026-05-04 13:20 | 14.48156 | 120.97079 | 764 ft | 134 kts | 63° |
| 2026-05-04 13:20 | 14.48626 | 120.97933 | 539 ft | 137 kts | 61° |
| 2026-05-04 13:20 | 14.49103 | 120.98783 | 396 ft | 136 kts | 64° |
| 2026-05-04 13:20 | 14.49576 | 120.99632 | 228 ft | 137 kts | 62° |
| 2026-05-04 13:21 | 14.50052 | 121.00473 | 70 ft | 130 kts | 65° |
| 2026-05-04 13:21 | 14.50422 | 121.01156 | 64 ft | 74 kts | 60° |
| 2026-05-04 13:21 | 14.50573 | 121.01430 | 66 ft | 34 kts | 59° |
| 2026-05-04 13:21 | 14.50673 | 121.01607 | 66 ft | 21 kts | 58° |
| 2026-05-04 13:22 | 14.50762 | 121.01716 | 64 ft | 19 kts | 40° |
| 2026-05-04 13:22 | 14.50824 | 121.01764 | 61 ft | 9 kts | 37° |
| 2026-05-04 13:22 | 14.50875 | 121.01786 | 60 ft | 7 kts | 357° |
| 2026-05-04 13:22 | 14.50897 | 121.01751 | 68 ft | 6 kts | 271° |
| 2026-05-04 13:23 | 14.50887 | 121.01711 | 68 ft | 7 kts | 244° |
| 2026-05-04 13:23 | 14.50852 | 121.01645 | 61 ft | 14 kts | 240° |
| 2026-05-04 13:23 | 14.50795 | 121.01545 | 67 ft | 19 kts | 239° |
| 2026-05-04 13:23 | 14.50731 | 121.01432 | 69 ft | 16 kts | 239° |
| 2026-05-04 13:24 | 14.50671 | 121.01325 | 66 ft | 16 kts | 240° |
| 2026-05-04 13:24 | 14.50610 | 121.01215 | 64 ft | 19 kts | 240° |
| 2026-05-04 13:24 | 14.50557 | 121.01121 | 65 ft | 16 kts | 239° |
| 2026-05-04 13:25 | 14.50437 | 121.00904 | 64 ft | 17 kts | 240° |
| 2026-05-04 13:25 | 14.50379 | 121.00799 | 66 ft | 16 kts | 240° |
| 2026-05-04 13:25 | 14.50370 | 121.00701 | 64 ft | 15 kts | 289° |
| 2026-05-04 13:25 | 14.50365 | 121.00610 | 64 ft | 8 kts | 277° |
| 2026-05-04 13:26 | 14.50404 | 121.00549 | 66 ft | 11 kts | 306° |
| 2026-05-04 13:26 | 14.50430 | 121.00513 | 61 ft | 3 kts | 307° |
| 2026-05-04 13:26 | 14.50435 | 121.00506 | 66 ft | 0 kts | 307° |
| 2026-05-04 13:54 | 14.50434 | 121.00506 | 69 ft | 0 kts | 307° |
| 2026-05-04 13:58 | 14.50434 | 121.00507 | 69 ft | 0 kts | 307° |